createdAt,value
2019-03-28T00:02:02.543Z,99.90
2019-03-28T00:04:31.866Z,99.90
2019-03-28T00:06:58.238Z,99.90
2019-03-28T00:09:25.387Z,99.90
2019-03-28T00:11:51.504Z,99.90
2019-03-28T00:14:17.654Z,99.90
2019-03-28T00:16:43.717Z,99.90
2019-03-28T00:19:18.714Z,99.90
2019-03-28T00:21:44.917Z,99.90
2019-03-28T00:24:19.052Z,99.90
2019-03-28T00:26:45.365Z,99.90
2019-03-28T00:29:11.610Z,99.90
2019-03-28T00:31:40.272Z,99.90
2019-03-28T00:34:10.407Z,99.90
2019-03-28T00:36:37.594Z,99.90
2019-03-28T00:39:06.077Z,99.90
2019-03-28T00:41:32.283Z,99.90
2019-03-28T00:43:58.721Z,99.90
2019-03-28T00:46:36.220Z,99.90
2019-03-28T00:49:02.712Z,99.90
2019-03-28T00:51:31.998Z,99.90
2019-03-28T00:54:00.502Z,99.90
2019-03-28T00:56:27.379Z,99.90
2019-03-28T00:58:55.546Z,99.90
2019-03-28T01:01:24.949Z,99.90
2019-03-28T01:03:52.587Z,99.90
2019-03-28T01:06:18.703Z,99.90
2019-03-28T01:08:46.023Z,99.90
2019-03-28T01:11:14.039Z,99.90
2019-03-28T01:13:40.192Z,99.90
2019-03-28T01:16:07.559Z,99.90
2019-03-28T01:18:38.681Z,99.90
2019-03-28T01:21:05.942Z,99.90
2019-03-28T01:23:40.744Z,99.90
2019-03-28T01:26:07.691Z,99.90
2019-03-28T01:28:33.729Z,99.90
2019-03-28T01:30:59.796Z,99.90
2019-03-28T01:33:30.275Z,99.90
2019-03-28T01:35:58.471Z,99.90
2019-03-28T01:38:24.756Z,99.90
2019-03-28T01:40:53.359Z,99.90
2019-03-28T01:43:19.771Z,99.90
2019-03-28T01:45:48.465Z,99.90
2019-03-28T01:48:18.345Z,99.90
2019-03-28T01:50:46.523Z,99.90
2019-03-28T01:53:13.007Z,99.90
2019-03-28T01:55:39.102Z,99.90
2019-03-28T01:58:05.287Z,99.90
2019-03-28T02:00:34.189Z,99.90
2019-03-28T02:03:02.576Z,99.90
2019-03-28T02:05:31.618Z,99.90
2019-03-28T02:07:57.645Z,99.90
2019-03-28T02:10:24.231Z,99.90
2019-03-28T02:12:51.832Z,99.90
2019-03-28T02:15:18.096Z,99.90
2019-03-28T02:17:45.007Z,99.90
2019-03-28T02:20:11.992Z,99.90
2019-03-28T02:22:38.802Z,99.90
2019-03-28T02:25:06.998Z,99.90
2019-03-28T02:27:34.219Z,99.90
2019-03-28T02:30:00.540Z,99.90
2019-03-28T02:32:26.681Z,99.90
2019-03-28T02:34:52.837Z,99.90
2019-03-28T02:37:19.126Z,99.90
2019-03-28T02:39:45.501Z,99.90
2019-03-28T02:42:11.754Z,99.90
2019-03-28T02:44:38.830Z,99.90
2019-03-28T02:47:06.016Z,99.90
2019-03-28T02:49:32.913Z,99.90
2019-03-28T02:51:59.368Z,99.90
2019-03-28T02:54:25.696Z,99.90
2019-03-28T02:56:52.177Z,99.90
2019-03-28T02:59:18.262Z,99.90
2019-03-28T03:01:59.854Z,99.90
2019-03-28T03:04:27.258Z,99.90
2019-03-28T03:06:54.543Z,99.90
2019-03-28T03:09:22.551Z,99.90
2019-03-28T03:11:48.747Z,99.90
2019-03-28T03:14:16.295Z,99.90
2019-03-28T03:16:42.454Z,99.90
2019-03-28T03:19:08.685Z,99.90
2019-03-28T03:21:37.502Z,99.90
2019-03-28T03:24:03.621Z,99.90
2019-03-28T03:26:36.890Z,99.90
2019-03-28T03:29:06.068Z,99.90
2019-03-28T03:31:32.403Z,99.90
2019-03-28T03:33:59.951Z,99.90
2019-03-28T03:36:26.340Z,99.90
2019-03-28T03:39:03.692Z,99.90
2019-03-28T03:41:31.552Z,99.90
2019-03-28T03:44:09.783Z,99.90
2019-03-28T03:46:36.317Z,99.90
2019-03-28T03:49:02.585Z,99.90
2019-03-28T03:51:28.743Z,99.90
2019-03-28T03:53:59.179Z,99.90
2019-03-28T03:56:25.566Z,99.90
2019-03-28T03:58:51.845Z,99.90
2019-03-28T04:01:19.859Z,99.90
2019-03-28T04:03:45.992Z,99.90
2019-03-28T04:06:12.049Z,99.90
2019-03-28T04:08:38.257Z,99.90
2019-03-28T04:11:05.101Z,99.90
2019-03-28T04:13:31.395Z,99.90
2019-03-28T04:15:57.787Z,99.90
2019-03-28T04:18:24.179Z,99.90
2019-03-28T04:20:51.801Z,99.90
2019-03-28T04:23:18.219Z,99.90
2019-03-28T04:25:47.540Z,99.90
2019-03-28T04:28:30.059Z,99.90
2019-03-28T04:30:43.110Z,99.90
2019-03-28T04:33:09.573Z,99.90
2019-03-28T04:35:35.673Z,99.90
2019-03-28T04:38:02.306Z,99.90
2019-03-28T04:40:28.796Z,99.90
2019-03-28T04:42:55.508Z,99.90
2019-03-28T04:45:21.721Z,99.90
2019-03-28T04:47:49.772Z,99.90
2019-03-28T04:50:15.889Z,99.90
2019-03-28T04:52:42.036Z,99.90
2019-03-28T04:55:08.744Z,99.90
2019-03-28T04:57:34.942Z,99.90
2019-03-28T05:00:03.918Z,99.90
2019-03-28T05:02:31.466Z,99.90
2019-03-28T05:05:04.774Z,99.90
2019-03-28T05:07:38.267Z,99.90
2019-03-28T05:10:06.909Z,99.90
2019-03-28T05:12:46.202Z,99.90
2019-03-28T05:15:14.373Z,99.90
2019-03-28T05:17:42.676Z,99.90
2019-03-28T05:20:16.907Z,99.90
2019-03-28T05:22:43.421Z,99.90
2019-03-28T05:25:09.873Z,99.90
2019-03-28T05:27:41.358Z,99.90
2019-03-28T05:30:08.412Z,99.90
2019-03-28T05:32:37.600Z,99.90
2019-03-28T05:35:05.800Z,99.90
2019-03-28T05:37:36.543Z,99.90
2019-03-28T05:40:06.081Z,99.90
2019-03-28T05:42:32.289Z,99.90
2019-03-28T05:45:27.016Z,99.90
2019-03-28T05:47:54.809Z,99.90
2019-03-28T05:50:22.539Z,99.90
2019-03-28T05:52:50.731Z,99.90
2019-03-28T05:55:17.916Z,99.90
2019-03-28T05:57:45.269Z,99.90
2019-03-28T06:00:12.297Z,99.90
2019-03-28T06:02:41.596Z,99.90
2019-03-28T06:05:08.744Z,99.90
2019-03-28T06:07:36.364Z,99.90
2019-03-28T06:10:25.369Z,99.90
2019-03-28T06:12:51.631Z,99.90
2019-03-28T06:15:17.777Z,99.90
2019-03-28T06:17:44.905Z,99.90
2019-03-28T06:20:14.319Z,99.90
2019-03-28T06:22:51.875Z,99.90
2019-03-28T06:25:20.893Z,99.90
2019-03-28T06:27:50.394Z,99.90
2019-03-28T06:30:21.586Z,99.90
2019-03-28T06:32:47.411Z,99.90
2019-03-28T06:35:21.804Z,99.90
2019-03-28T06:37:47.091Z,99.90
2019-03-28T06:40:16.666Z,99.90
2019-03-28T06:42:45.781Z,99.90
2019-03-28T06:45:14.489Z,99.90
2019-03-28T06:47:45.033Z,99.90
2019-03-28T06:50:13.325Z,99.90
2019-03-28T06:52:40.483Z,99.90
2019-03-28T06:55:08.261Z,99.90
2019-03-28T06:57:38.823Z,99.90
2019-03-28T07:00:20.893Z,99.90
2019-03-28T07:02:47.763Z,99.90
2019-03-28T07:05:29.369Z,99.90
2019-03-28T07:07:59.364Z,99.90
2019-03-28T07:10:25.585Z,99.90
2019-03-28T07:12:51.894Z,99.90
2019-03-28T07:15:28.389Z,99.90
2019-03-28T07:18:00.212Z,99.90
2019-03-28T07:20:26.454Z,99.90
2019-03-28T07:22:52.904Z,99.90
2019-03-28T07:25:25.329Z,99.90
2019-03-28T07:27:50.149Z,99.90
2019-03-28T07:30:19.488Z,99.90
2019-03-28T07:32:47.837Z,99.90
2019-03-28T07:35:15.088Z,99.90
2019-03-28T07:37:45.161Z,99.90
2019-03-28T07:40:11.718Z,99.90
2019-03-28T07:42:39.831Z,99.90
2019-03-28T07:45:10.302Z,99.90
2019-03-28T07:47:41.693Z,99.90
2019-03-28T07:50:16.836Z,99.90
2019-03-28T07:52:49.367Z,99.90
2019-03-28T07:55:16.692Z,99.90
2019-03-28T07:57:43.143Z,99.90
2019-03-28T08:00:19.542Z,99.90
2019-03-28T08:02:46.852Z,99.90
2019-03-28T08:05:13.655Z,99.90
2019-03-28T08:07:45.239Z,99.90
2019-03-28T08:10:10.206Z,99.90
2019-03-28T08:12:38.647Z,99.90
2019-03-28T08:15:09.828Z,99.90
2019-03-28T08:17:36.347Z,99.90
2019-03-28T08:20:08.883Z,99.90
2019-03-28T08:22:37.265Z,99.90
2019-03-28T08:25:11.228Z,99.90
2019-03-28T08:27:37.309Z,99.90
2019-03-28T08:30:17.670Z,99.90
2019-03-28T08:32:36.061Z,99.90
2019-03-28T08:35:05.310Z,99.90
2019-03-28T08:37:31.662Z,99.90
2019-03-28T08:39:57.747Z,99.90
2019-03-28T08:42:30.929Z,99.90
2019-03-28T08:44:58.057Z,99.90
2019-03-28T08:47:27.143Z,99.90
2019-03-28T08:49:53.509Z,99.90
2019-03-28T08:52:23.044Z,99.90
2019-03-28T08:54:52.042Z,99.90
2019-03-28T08:57:22.874Z,99.90
2019-03-28T08:59:55.875Z,99.90
2019-03-28T09:02:24.761Z,99.90
2019-03-28T09:04:51.157Z,99.90
2019-03-28T09:07:35.101Z,99.90
2019-03-28T09:10:08.535Z,99.90
2019-03-28T09:12:36.605Z,99.90
2019-03-28T09:15:04.783Z,99.90
2019-03-28T09:17:32.005Z,99.90
2019-03-28T09:19:58.225Z,99.90
2019-03-28T09:22:24.587Z,99.90
2019-03-28T09:24:50.917Z,99.90
2019-03-28T09:27:18.064Z,99.90
2019-03-28T09:29:45.288Z,99.90
2019-03-28T09:32:16.060Z,99.90
2019-03-28T09:34:41.342Z,99.90
2019-03-28T09:37:08.787Z,99.90
2019-03-28T09:39:34.814Z,99.90
2019-03-28T09:42:06.399Z,99.90
2019-03-28T09:44:35.119Z,99.90
2019-03-28T09:47:03.248Z,99.90
2019-03-28T09:49:37.748Z,99.90
2019-03-28T09:52:06.971Z,99.90
2019-03-28T09:54:34.286Z,99.90
2019-03-28T09:57:02.413Z,99.90
2019-03-28T09:59:29.518Z,99.90
2019-03-28T10:01:55.696Z,99.90
2019-03-28T10:04:25.892Z,99.90
2019-03-28T10:06:52.001Z,99.90
2019-03-28T10:09:20.093Z,99.90
2019-03-28T10:11:47.258Z,99.90
2019-03-28T10:14:13.877Z,99.90
2019-03-28T10:16:50.269Z,99.90
2019-03-28T10:19:22.880Z,99.90
2019-03-28T10:21:50.034Z,99.90
2019-03-28T10:24:16.659Z,99.90
2019-03-28T10:26:48.327Z,99.90
2019-03-28T10:29:21.858Z,99.90
2019-03-28T10:31:48.616Z,99.90
2019-03-28T10:34:16.563Z,99.90
2019-03-28T10:36:55.611Z,99.90
2019-03-28T10:39:22.835Z,99.90
2019-03-28T10:41:49.247Z,99.90
2019-03-28T10:44:18.519Z,99.90
2019-03-28T10:46:47.681Z,99.90
2019-03-28T10:49:14.956Z,99.90
2019-03-28T10:51:41.778Z,99.90
2019-03-28T10:54:20.624Z,99.90
2019-03-28T10:56:52.098Z,99.90
2019-03-28T10:59:23.456Z,99.90
2019-03-28T11:02:03.108Z,99.90
2019-03-28T11:04:34.814Z,99.90
2019-03-28T11:07:08.070Z,99.90
2019-03-28T11:09:34.662Z,99.90
2019-03-28T11:12:05.471Z,99.90
2019-03-28T11:14:32.499Z,99.90
2019-03-28T11:16:58.744Z,99.90
2019-03-28T11:19:40.317Z,99.90
2019-03-28T11:22:06.645Z,99.90
2019-03-28T11:24:35.780Z,99.90
2019-03-28T11:27:06.253Z,99.90
2019-03-28T11:29:32.434Z,99.90
2019-03-28T11:31:58.728Z,99.90
2019-03-28T11:34:25.674Z,99.90
2019-03-28T11:36:58.521Z,99.90
2019-03-28T11:39:27.204Z,99.90
2019-03-28T11:41:54.412Z,99.90
2019-03-28T11:44:22.487Z,99.90
2019-03-28T11:47:01.035Z,99.90
2019-03-28T11:49:27.310Z,99.90
2019-03-28T11:51:55.811Z,99.90
2019-03-28T11:54:33.971Z,99.90
2019-03-28T11:57:00.168Z,99.90
2019-03-28T11:59:34.743Z,99.90
2019-03-28T12:02:18.683Z,99.90
2019-03-28T12:04:32.236Z,99.90
2019-03-28T12:06:58.850Z,99.90
2019-03-28T12:09:26.856Z,99.90
2019-03-28T12:11:53.185Z,99.90
2019-03-28T12:14:31.885Z,99.90
2019-03-28T12:16:59.047Z,99.90
2019-03-28T12:19:27.111Z,99.90
2019-03-28T12:21:59.331Z,99.90
2019-03-28T12:24:28.458Z,99.90
2019-03-28T12:26:55.949Z,99.90
2019-03-28T12:29:36.093Z,99.90
2019-03-28T12:32:13.844Z,99.90
2019-03-28T12:34:32.884Z,98.70
2019-03-28T12:36:59.064Z,99.10
2019-03-28T12:39:25.141Z,99.40
2019-03-28T12:41:51.320Z,99.10
2019-03-28T12:44:17.709Z,99.60
2019-03-28T12:46:44.044Z,99.90
2019-03-28T12:49:11.524Z,99.90
2019-03-28T12:51:43.078Z,99.90
2019-03-28T12:54:11.884Z,99.90
2019-03-28T12:56:42.956Z,99.90
2019-03-28T12:59:10.542Z,99.90
2019-03-28T13:01:36.852Z,99.90
2019-03-28T13:04:05.002Z,99.90
2019-03-28T13:06:33.570Z,99.90
2019-03-28T13:09:09.730Z,99.90
2019-03-28T13:11:39.272Z,99.90
2019-03-28T13:14:05.845Z,99.80
2019-03-28T13:16:31.957Z,99.60
2019-03-28T13:18:58.000Z,99.00
2019-03-28T13:21:29.829Z,98.20
2019-03-28T13:23:55.989Z,99.00
2019-03-28T13:26:22.673Z,99.60
2019-03-28T13:28:48.780Z,99.50
2019-03-28T13:31:22.926Z,99.20
2019-03-28T13:33:50.350Z,99.20
2019-03-28T13:36:17.424Z,99.50
2019-03-28T13:38:43.647Z,99.90
2019-03-28T13:41:09.875Z,99.90
2019-03-28T13:43:37.856Z,99.90
2019-03-28T13:46:16.381Z,99.10
2019-03-28T13:48:42.886Z,98.70
2019-03-28T13:51:09.282Z,98.50
2019-03-28T13:53:44.358Z,97.70
2019-03-28T13:56:23.033Z,97.30
2019-03-28T13:58:52.322Z,96.50
2019-03-28T14:01:22.816Z,95.50
2019-03-28T14:03:51.619Z,94.80
2019-03-28T14:06:19.352Z,94.30
2019-03-28T14:08:45.603Z,93.70
2019-03-28T14:11:16.985Z,93.60
2019-03-28T14:13:43.060Z,94.30
2019-03-28T14:16:15.790Z,95.70
2019-03-28T14:18:41.966Z,97.00
2019-03-28T14:21:11.721Z,97.60
2019-03-28T14:23:48.748Z,97.50
2019-03-28T14:26:24.084Z,97.70
2019-03-28T14:28:59.794Z,97.70
2019-03-28T14:31:25.973Z,97.20
2019-03-28T14:33:53.141Z,97.40
2019-03-28T14:36:25.173Z,97.40
2019-03-28T14:38:52.638Z,97.40
2019-03-28T14:41:22.528Z,97.40
2019-03-28T14:43:48.990Z,97.50
2019-03-28T14:46:16.834Z,97.70
2019-03-28T14:48:52.876Z,97.50
2019-03-28T14:51:21.118Z,97.70
2019-03-28T14:53:47.559Z,97.70
2019-03-28T14:56:17.280Z,98.00
2019-03-28T14:58:44.893Z,98.30
2019-03-28T15:01:11.084Z,98.60
2019-03-28T15:03:37.637Z,98.80
2019-03-28T15:06:03.760Z,99.20
2019-03-28T15:08:44.191Z,99.60
2019-03-28T15:11:10.649Z,99.90
2019-03-28T15:13:39.007Z,99.90
2019-03-28T15:16:09.938Z,99.90
2019-03-28T15:18:53.607Z,99.90
2019-03-28T15:21:27.574Z,99.90
2019-03-28T15:23:58.885Z,99.90
2019-03-28T15:26:30.169Z,99.90
2019-03-28T15:28:58.869Z,99.90
2019-03-28T15:31:25.418Z,99.90
2019-03-28T15:33:52.657Z,99.90
2019-03-28T15:36:22.972Z,99.90
2019-03-28T15:38:49.592Z,99.90
2019-03-28T15:41:18.377Z,99.90
2019-03-28T15:43:45.508Z,99.90
2019-03-28T15:46:11.563Z,99.90
2019-03-28T15:48:38.755Z,99.90
2019-03-28T15:51:05.285Z,99.90
2019-03-28T15:53:31.367Z,99.90
2019-03-28T15:56:02.419Z,99.90
2019-03-28T15:58:30.714Z,99.90
2019-03-28T16:00:56.824Z,99.90
2019-03-28T16:03:24.035Z,99.90
2019-03-28T16:05:58.719Z,99.90
2019-03-28T16:08:25.249Z,99.90
2019-03-28T16:10:51.433Z,99.90
2019-03-28T16:13:17.927Z,99.90
2019-03-28T16:15:49.218Z,99.90
2019-03-28T16:18:18.374Z,99.90
2019-03-28T16:20:46.540Z,99.90
2019-03-28T16:23:12.608Z,99.90
2019-03-28T16:25:40.669Z,99.90
2019-03-28T16:28:09.739Z,99.90
2019-03-28T16:30:38.018Z,99.90
2019-03-28T16:33:04.855Z,99.90
2019-03-28T16:35:31.730Z,99.70
2019-03-28T16:38:09.677Z,99.90
2019-03-28T16:40:38.706Z,99.90
2019-03-28T16:43:05.997Z,99.90
2019-03-28T16:45:48.898Z,99.90
2019-03-28T16:48:58.281Z,99.90
2019-03-28T16:51:43.347Z,99.90
2019-03-28T16:54:11.214Z,99.90
2019-03-28T16:56:38.746Z,99.90
2019-03-28T16:59:08.880Z,99.90
2019-03-28T17:01:40.653Z,99.90
2019-03-28T17:04:20.115Z,99.90
2019-03-28T17:06:36.600Z,99.90
2019-03-28T17:09:06.956Z,99.90
2019-03-28T17:11:44.545Z,99.90
2019-03-28T17:14:10.940Z,99.90
2019-03-28T17:16:38.809Z,99.90
2019-03-28T17:19:07.630Z,99.90
2019-03-28T17:21:41.107Z,99.90
2019-03-28T17:24:10.202Z,99.90
2019-03-28T17:26:36.408Z,99.90
2019-03-28T17:29:30.877Z,99.90
2019-03-28T17:32:01.137Z,99.90
2019-03-28T17:34:34.626Z,99.90
2019-03-28T17:36:55.289Z,99.90
2019-03-28T17:39:35.258Z,99.90
2019-03-28T17:42:11.430Z,99.90
2019-03-28T17:44:40.562Z,99.90
2019-03-28T17:47:06.689Z,99.90
2019-03-28T17:49:32.969Z,99.90
2019-03-28T17:52:14.589Z,99.90
2019-03-28T17:54:40.679Z,99.90
2019-03-28T17:57:08.091Z,99.90
2019-03-28T17:59:36.177Z,99.90
2019-03-28T18:02:02.291Z,99.90
2019-03-28T18:04:29.486Z,99.90
2019-03-28T18:06:55.620Z,99.90
2019-03-28T18:09:21.798Z,99.90
2019-03-28T18:11:48.279Z,99.90
2019-03-28T18:14:23.751Z,99.90
2019-03-28T18:16:59.666Z,99.90
2019-03-28T18:19:26.301Z,99.90
2019-03-28T18:22:02.709Z,99.90
2019-03-28T18:24:21.596Z,99.90
2019-03-28T18:26:52.072Z,99.90
2019-03-28T18:29:19.332Z,99.90
2019-03-28T18:31:50.851Z,99.90
2019-03-28T18:34:14.833Z,99.90
2019-03-28T18:36:43.320Z,99.90
2019-03-28T18:39:14.175Z,99.90
2019-03-28T18:41:40.592Z,99.90
2019-03-28T18:44:09.067Z,99.90
2019-03-28T18:46:35.173Z,99.90
2019-03-28T18:49:05.290Z,99.90
2019-03-28T18:51:35.532Z,99.90
2019-03-28T18:54:01.607Z,99.90
2019-03-28T18:56:27.988Z,99.90
2019-03-28T18:58:56.931Z,99.90
2019-03-28T19:01:23.869Z,99.90
2019-03-28T19:03:51.792Z,99.90
2019-03-28T19:06:22.272Z,99.90
2019-03-28T19:08:48.429Z,99.90
2019-03-28T19:11:15.191Z,99.90
2019-03-28T19:13:48.011Z,99.90
2019-03-28T19:16:15.932Z,99.90
2019-03-28T19:18:44.521Z,99.90
2019-03-28T19:21:10.625Z,99.90
2019-03-28T19:23:37.673Z,99.90
2019-03-28T19:26:05.339Z,99.90
2019-03-28T19:28:34.001Z,99.90
2019-03-28T19:31:08.015Z,99.90
2019-03-28T19:33:34.189Z,99.90
2019-03-28T19:36:09.383Z,99.90
2019-03-28T19:38:38.286Z,99.90
2019-03-28T19:41:09.580Z,99.90
2019-03-28T19:43:36.128Z,99.90
2019-03-28T19:46:02.488Z,99.90
2019-03-28T19:48:30.253Z,99.90
2019-03-28T19:50:56.291Z,99.90
2019-03-28T19:53:35.161Z,99.90
2019-03-28T19:56:00.352Z,99.90
2019-03-28T19:58:28.932Z,99.90
2019-03-28T20:00:55.531Z,99.90
2019-03-28T20:03:23.421Z,99.90
2019-03-28T20:05:50.798Z,99.90
2019-03-28T20:08:18.327Z,99.90
2019-03-28T20:10:46.921Z,99.90
2019-03-28T20:13:16.048Z,99.90
2019-03-28T20:15:44.280Z,99.90
2019-03-28T20:18:10.482Z,99.90
2019-03-28T20:20:43.483Z,99.90
2019-03-28T20:23:09.657Z,99.90
2019-03-28T20:25:35.798Z,99.90
2019-03-28T20:28:14.434Z,99.90
2019-03-28T20:30:40.345Z,99.90
2019-03-28T20:33:12.984Z,99.90
2019-03-28T20:36:18.808Z,99.90
2019-03-28T20:38:26.823Z,99.90
2019-03-28T20:40:52.884Z,99.90
2019-03-28T20:43:27.100Z,99.90
2019-03-28T20:45:55.515Z,99.90
2019-03-28T20:48:21.741Z,99.90
2019-03-28T20:50:48.926Z,99.90
2019-03-28T20:53:18.015Z,99.90
2019-03-28T20:55:44.177Z,99.90
2019-03-28T20:58:10.222Z,99.90
2019-03-28T21:00:43.024Z,99.90
2019-03-28T21:03:09.231Z,99.90
2019-03-28T21:05:35.931Z,99.90
2019-03-28T21:08:05.311Z,99.90
2019-03-28T21:10:34.465Z,99.90
2019-03-28T21:13:00.716Z,99.90
2019-03-28T21:15:43.744Z,99.90
2019-03-28T21:18:13.729Z,99.90
2019-03-28T21:20:41.861Z,99.90
2019-03-28T21:23:12.269Z,99.90
2019-03-28T21:25:37.946Z,99.90
2019-03-28T21:28:04.012Z,99.90
2019-03-28T21:30:30.456Z,99.90
2019-03-28T21:32:57.959Z,99.90
2019-03-28T21:35:24.276Z,99.90
2019-03-28T21:37:50.856Z,99.90
2019-03-28T21:40:21.444Z,99.90
2019-03-28T21:42:48.536Z,99.90
2019-03-28T21:45:15.089Z,99.90
2019-03-28T21:47:42.407Z,99.90
2019-03-28T21:50:09.333Z,99.90
2019-03-28T21:52:35.788Z,99.90
2019-03-28T21:55:11.365Z,99.90
2019-03-28T21:57:38.192Z,99.90
2019-03-28T22:00:12.577Z,99.90
2019-03-28T22:02:38.740Z,99.90
2019-03-28T22:05:07.300Z,99.90
2019-03-28T22:07:33.392Z,99.90
2019-03-28T22:10:00.949Z,99.90
2019-03-28T22:12:30.227Z,99.90
2019-03-28T22:14:56.610Z,99.90
2019-03-28T22:17:22.815Z,99.90
2019-03-28T22:19:49.126Z,99.90
2019-03-28T22:22:20.267Z,99.90
2019-03-28T22:24:46.362Z,99.90
2019-03-28T22:27:22.266Z,99.90
2019-03-28T22:29:48.593Z,99.90
2019-03-28T22:32:14.734Z,99.90
2019-03-28T22:34:43.108Z,99.90
2019-03-28T22:37:10.234Z,99.90
2019-03-28T22:39:38.274Z,99.90
2019-03-28T22:42:04.557Z,99.90
2019-03-28T22:44:33.749Z,99.90
2019-03-28T22:46:58.694Z,99.90
2019-03-28T22:49:24.867Z,99.90
2019-03-28T22:51:51.392Z,99.90
2019-03-28T22:54:17.519Z,99.90
2019-03-28T22:56:54.919Z,99.90
2019-03-28T22:59:21.027Z,99.90
2019-03-28T23:01:52.626Z,99.90
2019-03-28T23:04:21.085Z,99.90
2019-03-28T23:06:47.443Z,99.90
2019-03-28T23:09:15.431Z,99.90
2019-03-28T23:11:43.537Z,99.90
2019-03-28T23:14:13.066Z,99.90
2019-03-28T23:16:57.084Z,99.90
2019-03-28T23:19:23.253Z,99.90
2019-03-28T23:21:50.361Z,99.90
2019-03-28T23:24:17.733Z,99.90
2019-03-28T23:26:46.028Z,99.90
2019-03-28T23:29:12.117Z,99.90
2019-03-28T23:31:40.246Z,99.90
2019-03-28T23:34:07.102Z,99.90
2019-03-28T23:36:36.446Z,99.90
2019-03-28T23:39:05.148Z,99.90
2019-03-28T23:41:31.751Z,99.90
2019-03-28T23:44:03.683Z,99.90
2019-03-28T23:46:29.877Z,99.90
2019-03-28T23:48:59.504Z,99.90
2019-03-28T23:51:29.568Z,99.90
2019-03-28T23:53:55.830Z,99.90
2019-03-28T23:56:21.971Z,99.90
2019-03-28T23:59:10.603Z,99.90
